createdAt,value
2022-11-04T00:01:55.146Z,18.00
2022-11-04T00:04:25.959Z,17.30
2022-11-04T00:06:54.780Z,17.90
2022-11-04T00:09:28.885Z,17.30
2022-11-04T00:12:16.638Z,17.70
2022-11-04T00:14:44.550Z,19.00
2022-11-04T00:17:24.915Z,18.40
2022-11-04T00:20:13.080Z,19.90
2022-11-04T00:23:01.284Z,19.20
2022-11-04T00:25:47.741Z,17.40
2022-11-04T00:28:36.867Z,18.20
2022-11-04T00:31:27.708Z,19.30
2022-11-04T00:33:57.696Z,19.70
2022-11-04T00:36:26.347Z,18.70
2022-11-04T00:38:54.960Z,17.10
2022-11-04T00:41:30.361Z,17.60
2022-11-04T00:44:03.805Z,19.80
2022-11-04T00:46:33.607Z,19.00
2022-11-04T00:49:01.743Z,18.30
2022-11-04T00:51:29.676Z,18.90
2022-11-04T00:53:58.467Z,16.70
2022-11-04T00:56:26.868Z,16.50
2022-11-04T00:58:54.980Z,17.50
2022-11-04T01:01:22.991Z,16.80
2022-11-04T01:03:53.087Z,17.40
2022-11-04T01:06:35.857Z,18.50
2022-11-04T01:09:23.261Z,17.90
2022-11-04T01:12:12.446Z,16.30
2022-11-04T01:17:11.410Z,17.40
2022-11-04T01:19:39.504Z,17.80
2022-11-04T01:22:08.194Z,17.60
2022-11-04T01:24:36.165Z,17.20
2022-11-04T01:27:04.206Z,17.70
2022-11-04T01:29:32.145Z,18.20
2022-11-04T01:32:00.079Z,16.90
2022-11-04T01:34:28.151Z,16.50
2022-11-04T01:36:56.148Z,18.20
2022-11-04T01:39:24.176Z,20.70
2022-11-04T01:41:52.206Z,22.20
2022-11-04T01:44:42.323Z,18.80
2022-11-04T01:47:44.725Z,20.90
2022-11-04T01:50:17.458Z,18.00
2022-11-04T01:53:13.888Z,16.50
2022-11-04T01:55:47.805Z,16.00
2022-11-04T01:58:18.938Z,17.10
2022-11-04T02:00:46.948Z,17.60
2022-11-04T02:03:20.207Z,16.10
2022-11-04T02:05:48.648Z,16.00
2022-11-04T02:08:18.177Z,15.20
2022-11-04T02:10:56.612Z,15.10
2022-11-04T02:13:26.100Z,14.70
2022-11-04T02:15:59.858Z,15.10
2022-11-04T02:18:46.440Z,16.50
2022-11-04T02:21:49.565Z,15.50
2022-11-04T02:24:52.929Z,14.20
2022-11-04T02:27:42.715Z,14.00
2022-11-04T02:30:21.888Z,14.10
2022-11-04T02:33:18.892Z,14.70
2022-11-04T02:36:04.639Z,14.30
2022-11-04T02:38:38.802Z,14.60
2022-11-04T02:41:17.176Z,13.30
2022-11-04T02:43:48.020Z,13.70
2022-11-04T02:46:24.554Z,13.00
2022-11-04T02:49:15.828Z,13.30
2022-11-04T02:51:47.793Z,14.00
2022-11-04T02:54:27.126Z,12.90
2022-11-04T02:56:59.157Z,14.00
2022-11-04T02:59:36.338Z,13.50
2022-11-04T03:02:09.227Z,13.80
2022-11-04T03:04:47.773Z,13.60
2022-11-04T03:07:22.680Z,12.80
2022-11-04T03:09:56.810Z,13.40
2022-11-04T03:12:30.461Z,13.40
2022-11-04T03:15:07.538Z,12.80
2022-11-04T03:17:50.171Z,12.80
2022-11-04T03:20:27.581Z,13.00
2022-11-04T03:22:59.972Z,11.60
2022-11-04T03:25:36.456Z,11.60
2022-11-04T03:28:08.871Z,11.30
2022-11-04T03:30:44.394Z,12.30
2022-11-04T03:33:23.231Z,11.60
2022-11-04T03:35:51.256Z,12.70
2022-11-04T03:38:21.112Z,12.20
2022-11-04T03:40:50.104Z,12.40
2022-11-04T03:43:24.169Z,11.40
2022-11-04T03:45:52.188Z,13.20
2022-11-04T03:48:20.205Z,11.70
2022-11-04T03:50:49.183Z,11.50
2022-11-04T03:53:22.704Z,12.00
2022-11-04T03:55:56.851Z,11.60
2022-11-04T03:58:37.953Z,12.70
2022-11-04T04:01:32.333Z,11.70
2022-11-04T04:04:16.017Z,12.40
2022-11-04T04:06:46.239Z,12.20
2022-11-04T04:09:23.245Z,12.10
2022-11-04T04:12:09.415Z,11.80
2022-11-04T04:14:45.183Z,11.30
2022-11-04T04:17:20.003Z,12.90
2022-11-04T04:20:09.626Z,12.70
2022-11-04T04:22:42.197Z,12.50
2022-11-04T04:25:32.036Z,12.60
2022-11-04T04:28:01.998Z,12.00
2022-11-04T04:30:30.668Z,12.20
2022-11-04T04:33:05.872Z,12.20
2022-11-04T04:35:43.107Z,12.50
2022-11-04T04:38:41.382Z,14.20
2022-11-04T04:41:37.242Z,13.10
2022-11-04T04:44:32.717Z,13.40
2022-11-04T04:47:02.815Z,12.10
2022-11-04T04:49:35.496Z,13.00
2022-11-04T04:52:07.151Z,13.00
2022-11-04T04:54:35.094Z,12.80
2022-11-04T04:57:03.034Z,15.20
2022-11-04T04:59:31.014Z,13.10
2022-11-04T05:01:59.042Z,11.40
2022-11-04T05:04:27.218Z,11.70
2022-11-04T05:06:55.123Z,12.90
2022-11-04T05:09:22.978Z,11.80
2022-11-04T05:11:50.858Z,12.50
2022-11-04T05:14:19.071Z,11.50
2022-11-04T05:16:46.978Z,12.20
2022-11-04T05:19:14.876Z,12.40
2022-11-04T05:21:42.834Z,12.20
2022-11-04T05:24:37.181Z,11.50
2022-11-04T05:27:05.036Z,13.00
2022-11-04T05:29:32.933Z,12.20
2022-11-04T05:32:00.800Z,11.30
2022-11-04T05:34:28.757Z,11.90
2022-11-04T05:36:56.655Z,11.90
2022-11-04T05:39:24.562Z,12.90
2022-11-04T05:41:52.485Z,11.70
2022-11-04T05:44:20.403Z,12.30
2022-11-04T05:46:48.300Z,13.20
2022-11-04T05:49:16.158Z,13.70
2022-11-04T05:51:44.736Z,11.90
2022-11-04T05:54:12.611Z,13.10
2022-11-04T05:56:40.547Z,12.10
2022-11-04T05:59:08.440Z,13.50
2022-11-04T06:01:39.526Z,12.80
2022-11-04T06:04:08.056Z,12.70
2022-11-04T06:06:36.862Z,13.20
2022-11-04T06:09:04.755Z,13.40
2022-11-04T06:11:34.599Z,13.30
2022-11-04T06:14:02.510Z,12.30
2022-11-04T06:16:31.464Z,12.90
2022-11-04T06:19:03.399Z,13.90
2022-11-04T06:21:35.703Z,13.40
2022-11-04T06:24:04.388Z,14.80
2022-11-04T06:26:32.299Z,13.50
2022-11-04T06:29:00.334Z,11.90
2022-11-04T06:31:28.278Z,13.10
2022-11-04T06:33:56.305Z,14.50
2022-11-04T06:36:24.203Z,12.90
2022-11-04T06:38:52.723Z,14.00
2022-11-04T06:41:20.672Z,13.50
2022-11-04T06:43:48.574Z,13.40
2022-11-04T06:46:31.876Z,12.20
2022-11-04T06:48:59.793Z,14.40
2022-11-04T06:51:28.021Z,12.70
2022-11-04T06:53:56.010Z,16.90
2022-11-04T06:56:24.215Z,14.10
2022-11-04T06:58:54.123Z,16.70
2022-11-04T07:01:25.367Z,14.10
2022-11-04T07:03:56.413Z,12.70
2022-11-04T07:06:25.454Z,15.40
2022-11-04T07:08:53.721Z,14.50
2022-11-04T07:11:22.952Z,13.00
2022-11-04T07:13:50.988Z,14.50
2022-11-04T07:16:19.161Z,13.80
2022-11-04T07:18:49.393Z,12.70
2022-11-04T07:21:18.193Z,12.90
2022-11-04T07:23:46.244Z,13.40
2022-11-04T07:26:14.580Z,13.50
2022-11-04T07:28:42.603Z,13.50
2022-11-04T07:31:12.533Z,13.70
2022-11-04T07:33:40.649Z,14.10
2022-11-04T07:36:12.130Z,13.40
2022-11-04T07:38:40.346Z,13.70
2022-11-04T07:41:08.577Z,12.90
2022-11-04T07:43:37.523Z,12.40
2022-11-04T07:46:15.566Z,13.20
2022-11-04T07:48:44.021Z,14.60
2022-11-04T07:51:16.523Z,13.70
2022-11-04T07:53:45.053Z,13.60
2022-11-04T07:56:13.781Z,13.20
2022-11-04T07:58:42.084Z,13.10
2022-11-04T08:01:14.334Z,12.70
2022-11-04T08:03:42.724Z,12.30
2022-11-04T08:06:13.602Z,13.10
2022-11-04T08:08:43.659Z,14.00
2022-11-04T08:11:18.190Z,13.50
2022-11-04T08:16:18.168Z,16.80
2022-11-04T08:18:48.545Z,12.40
2022-11-04T08:21:17.047Z,12.60
2022-11-04T08:23:46.333Z,11.30
2022-11-04T08:26:19.568Z,10.50
2022-11-04T08:28:47.847Z,10.80
2022-11-04T08:31:17.483Z,12.50
2022-11-04T08:33:46.379Z,11.70
2022-11-04T08:36:40.951Z,12.40
2022-11-04T08:39:11.335Z,11.70
2022-11-04T08:41:41.788Z,12.20
2022-11-04T08:44:12.151Z,11.90
2022-11-04T08:46:42.061Z,11.60
2022-11-04T08:49:13.828Z,10.70
2022-11-04T08:54:14.850Z,10.90
2022-11-04T08:56:43.040Z,11.40
2022-11-04T08:59:11.581Z,11.60
2022-11-04T09:01:39.734Z,9.90
2022-11-04T09:04:08.097Z,11.00
2022-11-04T09:06:39.826Z,9.40
2022-11-04T09:09:10.320Z,8.90
2022-11-04T09:11:40.388Z,10.20
2022-11-04T09:14:09.013Z,9.50
2022-11-04T09:16:39.313Z,11.60
2022-11-04T09:19:07.670Z,11.00
2022-11-04T09:21:36.106Z,9.30
2022-11-04T09:24:05.201Z,9.20
2022-11-04T09:26:33.483Z,8.50
2022-11-04T09:29:01.479Z,9.40
2022-11-04T09:31:56.556Z,9.30
2022-11-04T09:34:24.512Z,9.90
2022-11-04T09:36:56.273Z,9.00
2022-11-04T09:39:25.644Z,8.20
2022-11-04T09:42:24.626Z,9.80
2022-11-04T09:45:24.734Z,8.80
2022-11-04T09:48:00.402Z,9.20
2022-11-04T09:50:36.175Z,10.10
2022-11-04T09:53:22.790Z,8.30
2022-11-04T09:55:55.850Z,8.00
2022-11-04T09:58:24.542Z,10.30
2022-11-04T10:01:02.363Z,12.60
2022-11-04T10:03:48.757Z,9.20
2022-11-04T10:06:27.768Z,8.40
2022-11-04T10:09:01.700Z,8.50
2022-11-04T10:11:48.472Z,9.40
2022-11-04T10:14:25.882Z,10.20
2022-11-04T10:17:12.514Z,9.10
2022-11-04T10:20:04.487Z,9.40
2022-11-04T10:22:39.685Z,8.50
2022-11-04T10:25:15.670Z,9.30
2022-11-04T10:27:47.211Z,8.80
2022-11-04T10:30:19.654Z,8.50
2022-11-04T10:33:09.446Z,8.90
2022-11-04T10:35:42.716Z,8.60
2022-11-04T10:38:31.740Z,9.90
2022-11-04T10:41:05.946Z,9.30
2022-11-04T10:43:39.296Z,9.00
2022-11-04T10:46:35.653Z,8.70
2022-11-04T10:49:21.557Z,9.00
2022-11-04T10:51:49.490Z,8.80
2022-11-04T10:54:18.150Z,9.30
2022-11-04T10:56:54.515Z,9.40
2022-11-04T10:59:38.191Z,8.70
2022-11-04T11:02:08.132Z,8.40
2022-11-04T11:04:38.156Z,8.30
2022-11-04T11:07:09.227Z,8.50
2022-11-04T11:09:54.528Z,8.20
2022-11-04T11:12:50.509Z,13.40
2022-11-04T11:15:32.855Z,10.40
2022-11-04T11:18:13.306Z,8.70
2022-11-04T11:20:48.234Z,10.60
2022-11-04T11:23:37.167Z,11.20
2022-11-04T11:26:08.599Z,8.30
2022-11-04T11:28:39.540Z,8.40
2022-11-04T11:31:23.516Z,8.70
2022-11-04T11:33:58.128Z,9.60
2022-11-04T11:36:30.370Z,9.80
2022-11-04T11:39:01.674Z,9.80
2022-11-04T11:41:31.820Z,9.30
2022-11-04T11:44:23.110Z,9.60
2022-11-04T11:46:56.735Z,10.00
2022-11-04T11:49:29.235Z,11.60
2022-11-04T11:52:30.684Z,10.90
2022-11-04T11:55:20.827Z,9.10
2022-11-04T12:01:35.076Z,11.80
2022-11-04T12:10:49.800Z,10.20
2022-11-04T12:13:36.010Z,8.60
2022-11-04T12:16:21.593Z,8.60
2022-11-04T12:18:55.153Z,10.30
2022-11-04T12:21:33.582Z,8.70
2022-11-04T12:24:42.220Z,10.50
2022-11-04T12:27:33.765Z,10.00
2022-11-04T12:30:11.171Z,11.60
2022-11-04T12:32:39.103Z,9.10
2022-11-04T12:35:42.287Z,9.00
2022-11-04T12:38:31.646Z,11.60
2022-11-04T12:41:37.483Z,11.00
2022-11-04T12:44:15.610Z,10.40
2022-11-04T12:46:56.810Z,9.40
2022-11-04T12:49:27.971Z,10.80
2022-11-04T12:52:20.104Z,9.00
2022-11-04T12:55:06.497Z,9.70
2022-11-04T12:57:53.954Z,10.30
2022-11-04T13:00:24.969Z,14.40
2022-11-04T13:03:05.686Z,14.70
2022-11-04T13:05:42.807Z,12.00
2022-11-04T13:08:27.515Z,10.50
2022-11-04T13:11:23.659Z,11.90
2022-11-04T13:14:02.146Z,9.90
2022-11-04T13:16:39.669Z,12.00
2022-11-04T13:19:23.995Z,12.40
2022-11-04T13:21:53.032Z,10.60
2022-11-04T13:24:30.559Z,11.40
2022-11-04T13:27:03.280Z,10.20
2022-11-04T13:29:34.741Z,13.60
2022-11-04T13:32:15.867Z,12.10
2022-11-04T13:35:13.052Z,14.70
2022-11-04T13:37:50.719Z,18.20
2022-11-04T13:40:24.992Z,13.30
2022-11-04T13:45:54.150Z,13.00
2022-11-04T13:48:26.590Z,13.30
2022-11-04T13:51:02.106Z,15.00
2022-11-04T13:53:55.636Z,16.30
2022-11-04T13:56:34.635Z,14.50
2022-11-04T13:59:05.461Z,20.60
2022-11-04T14:01:35.961Z,16.10
2022-11-04T14:04:30.317Z,17.20
2022-11-04T14:07:04.234Z,20.40
2022-11-04T14:09:44.268Z,15.70
2022-11-04T14:12:14.846Z,13.90
2022-11-04T14:14:55.027Z,14.40
2022-11-04T14:17:35.374Z,15.20
2022-11-04T14:20:06.684Z,14.70
2022-11-04T14:22:45.808Z,14.30
2022-11-04T14:25:44.443Z,15.00
2022-11-04T14:28:15.508Z,14.50
2022-11-04T14:30:59.227Z,13.60
2022-11-04T14:33:54.075Z,13.40
2022-11-04T14:39:04.547Z,14.10
2022-11-04T14:41:41.426Z,15.60
2022-11-04T14:44:26.302Z,14.20
2022-11-04T14:46:59.160Z,14.30
2022-11-04T14:49:44.422Z,15.10
2022-11-04T14:52:32.722Z,15.60
2022-11-04T14:55:35.110Z,16.70
2022-11-04T14:58:29.528Z,15.30
2022-11-04T15:01:04.422Z,16.20
2022-11-04T15:06:53.446Z,16.60
2022-11-04T15:09:23.354Z,16.40
2022-11-04T15:12:17.162Z,14.90
2022-11-04T15:14:45.068Z,15.50
2022-11-04T15:17:20.466Z,21.70
2022-11-04T15:19:53.819Z,32.90
2022-11-04T15:22:23.076Z,24.40
2022-11-04T15:24:51.118Z,17.40
2022-11-04T15:27:26.089Z,15.20
2022-11-04T15:30:06.059Z,14.50
2022-11-04T15:32:33.986Z,14.20
2022-11-04T15:35:02.209Z,15.00
2022-11-04T15:37:31.004Z,14.10
2022-11-04T15:39:59.753Z,16.60
2022-11-04T15:42:45.937Z,14.40
2022-11-04T15:45:26.081Z,14.40
2022-11-04T15:48:22.591Z,15.00
2022-11-04T15:51:14.955Z,16.20
2022-11-04T15:53:53.555Z,16.20
2022-11-04T15:56:31.865Z,16.00
2022-11-04T15:59:09.708Z,17.70
2022-11-04T16:01:48.115Z,17.90
2022-11-04T16:04:18.191Z,16.60
2022-11-04T16:06:49.341Z,16.50
2022-11-04T16:09:23.042Z,15.60
2022-11-04T16:12:07.035Z,17.00
2022-11-04T16:14:35.092Z,16.00
2022-11-04T16:17:03.524Z,15.90
2022-11-04T16:19:32.460Z,17.30
2022-11-04T16:22:09.213Z,18.00
2022-11-04T16:24:40.770Z,18.60
2022-11-04T16:27:11.028Z,16.00
2022-11-04T16:29:42.648Z,18.60
2022-11-04T16:34:51.902Z,20.00
2022-11-04T16:37:19.894Z,22.70
2022-11-04T16:39:50.062Z,23.30
2022-11-04T16:42:18.179Z,22.70
2022-11-04T16:44:57.763Z,21.50
2022-11-04T16:47:28.382Z,21.80
2022-11-04T16:50:01.298Z,24.60
2022-11-04T16:52:31.027Z,22.80
2022-11-04T16:54:58.929Z,19.20
2022-11-04T16:57:27.033Z,19.30
2022-11-04T16:59:56.434Z,19.30
2022-11-04T17:02:35.106Z,19.90
2022-11-04T17:05:04.684Z,22.70
2022-11-04T17:07:51.655Z,51.20
2022-11-04T17:10:23.953Z,55.50
2022-11-04T17:12:52.073Z,59.60
2022-11-04T17:15:20.125Z,56.40
2022-11-04T17:17:48.105Z,54.50
2022-11-04T17:20:18.033Z,51.30
2022-11-04T17:22:47.458Z,52.00
2022-11-04T17:25:25.252Z,54.60
2022-11-04T17:27:53.345Z,56.90
2022-11-04T17:30:22.807Z,52.30
2022-11-04T17:32:51.117Z,50.60
2022-11-04T17:35:19.022Z,60.00
2022-11-04T17:37:47.035Z,68.40
2022-11-04T17:40:17.398Z,64.90
2022-11-04T17:43:10.348Z,55.20
2022-11-04T17:45:43.713Z,52.00
2022-11-04T17:48:14.281Z,38.80
2022-11-04T17:50:42.621Z,32.80
2022-11-04T17:53:10.924Z,31.30
2022-11-04T17:55:40.732Z,31.50
2022-11-04T17:58:08.917Z,28.50
2022-11-04T18:00:37.565Z,29.10
2022-11-04T18:03:07.031Z,29.70
2022-11-04T18:05:35.286Z,31.70
2022-11-04T18:08:03.926Z,31.70
2022-11-04T18:10:31.827Z,32.40
2022-11-04T18:12:59.816Z,32.40
2022-11-04T18:15:28.551Z,31.60
2022-11-04T18:17:57.458Z,32.30
2022-11-04T18:20:25.436Z,30.80
2022-11-04T18:22:53.891Z,32.90
2022-11-04T18:25:21.856Z,32.70
2022-11-04T18:27:49.762Z,33.40
2022-11-04T18:30:17.883Z,32.50
2022-11-04T18:32:45.818Z,33.40
2022-11-04T18:35:13.747Z,32.00
2022-11-04T18:37:45.889Z,31.00
2022-11-04T18:40:16.611Z,33.00
2022-11-04T18:42:44.737Z,35.20
2022-11-04T18:45:12.773Z,38.80
2022-11-04T18:47:40.897Z,38.50
2022-11-04T18:50:09.317Z,33.10
2022-11-04T18:52:37.383Z,33.20
2022-11-04T18:55:06.700Z,33.90
2022-11-04T18:57:34.910Z,35.70
2022-11-04T19:00:04.168Z,36.10
2022-11-04T19:02:32.713Z,33.90
2022-11-04T19:05:00.858Z,31.80
2022-11-04T19:07:28.801Z,30.50
2022-11-04T19:09:57.086Z,30.60
2022-11-04T19:12:43.704Z,33.10
2022-11-04T19:15:12.944Z,36.00
2022-11-04T19:17:40.875Z,32.00
2022-11-04T19:20:12.683Z,32.60
2022-11-04T19:22:41.399Z,33.30
2022-11-04T19:25:10.453Z,33.80
2022-11-04T19:27:38.925Z,33.70
2022-11-04T19:30:07.638Z,35.60
2022-11-04T19:32:35.587Z,32.60
2022-11-04T19:35:03.964Z,33.60
2022-11-04T19:37:33.537Z,33.80
2022-11-04T19:40:01.476Z,36.70
2022-11-04T19:42:48.212Z,36.20
2022-11-04T19:45:17.034Z,37.20
2022-11-04T19:47:45.026Z,36.60
2022-11-04T19:50:13.208Z,36.60
2022-11-04T19:52:41.213Z,32.70
2022-11-04T19:55:10.417Z,32.60
2022-11-04T19:57:39.468Z,33.30
2022-11-04T20:00:08.258Z,33.20
2022-11-04T20:02:42.602Z,32.80
2022-11-04T20:05:11.066Z,33.00
2022-11-04T20:07:39.669Z,32.90
2022-11-04T20:10:08.575Z,36.00
2022-11-04T20:12:57.520Z,41.30
2022-11-04T20:15:26.502Z,39.30
2022-11-04T20:17:54.449Z,37.70
2022-11-04T20:20:22.355Z,40.60
2022-11-04T20:22:50.327Z,39.30
2022-11-04T20:25:18.381Z,41.60
2022-11-04T20:27:46.346Z,40.30
2022-11-04T20:30:14.270Z,42.00
2022-11-04T20:32:42.209Z,40.10
2022-11-04T20:35:10.574Z,39.20
2022-11-04T20:37:38.822Z,44.30
2022-11-04T20:40:07.735Z,46.60
2022-11-04T20:42:35.822Z,52.60
2022-11-04T20:45:04.462Z,50.10
2022-11-04T20:47:32.367Z,50.60
2022-11-04T20:50:00.324Z,52.60
2022-11-04T20:52:28.309Z,54.00
2022-11-04T20:54:56.235Z,55.00
2022-11-04T20:57:24.118Z,52.80
2022-11-04T20:59:53.492Z,51.20
2022-11-04T21:02:23.086Z,51.60
2022-11-04T21:04:52.818Z,52.70
2022-11-04T21:07:20.895Z,46.90
2022-11-04T21:09:51.192Z,47.00
2022-11-04T21:12:19.590Z,48.60
2022-11-04T21:14:47.604Z,46.10
2022-11-04T21:17:15.578Z,47.50
2022-11-04T21:19:43.493Z,46.10
2022-11-04T21:22:11.431Z,46.50
2022-11-04T21:24:39.637Z,44.90
2022-11-04T21:27:07.633Z,44.00
2022-11-04T21:29:36.559Z,43.80
2022-11-04T21:32:04.640Z,40.30
2022-11-04T21:34:32.501Z,41.00
2022-11-04T21:37:00.372Z,41.90
2022-11-04T21:39:28.388Z,48.30
2022-11-04T21:41:56.264Z,43.70
2022-11-04T21:44:24.262Z,50.40
2022-11-04T21:46:52.665Z,53.00
2022-11-04T21:49:20.988Z,45.70
2022-11-04T21:51:48.918Z,42.50
2022-11-04T21:54:16.855Z,44.20
2022-11-04T21:56:45.767Z,40.40
2022-11-04T21:59:18.121Z,41.20
2022-11-04T22:01:46.698Z,42.80
2022-11-04T22:04:15.035Z,40.10
2022-11-04T22:06:42.915Z,50.50
2022-11-04T22:09:12.876Z,50.90
2022-11-04T22:11:40.823Z,44.10
2022-11-04T22:14:11.780Z,46.60
2022-11-04T22:16:40.599Z,46.10
2022-11-04T22:19:10.533Z,39.90
2022-11-04T22:21:40.412Z,39.80
2022-11-04T22:24:13.349Z,39.30
2022-11-04T22:26:42.264Z,40.60
2022-11-04T22:29:10.762Z,41.20
2022-11-04T22:31:41.748Z,38.30
2022-11-04T22:34:09.965Z,68.00
2022-11-04T22:36:40.042Z,65.30
2022-11-04T22:39:16.068Z,40.50
2022-11-04T22:41:46.447Z,39.50
2022-11-04T22:44:15.153Z,41.30
2022-11-04T22:46:43.227Z,40.20
2022-11-04T22:49:11.187Z,41.70
2022-11-04T22:51:39.185Z,39.50
2022-11-04T22:54:09.303Z,38.80
2022-11-04T22:56:37.265Z,36.90
2022-11-04T22:59:06.039Z,39.70
2022-11-04T23:01:34.475Z,38.60
2022-11-04T23:04:03.147Z,39.50
2022-11-04T23:06:31.874Z,41.20
2022-11-04T23:09:00.972Z,45.00
2022-11-04T23:11:49.567Z,43.60
2022-11-04T23:14:39.637Z,44.40
2022-11-04T23:17:36.464Z,44.00
2022-11-04T23:20:08.212Z,46.40
2022-11-04T23:22:55.144Z,47.60
2022-11-04T23:25:23.260Z,43.80
2022-11-04T23:28:13.013Z,43.90
2022-11-04T23:30:43.802Z,45.00
2022-11-04T23:33:17.309Z,42.00
2022-11-04T23:36:06.648Z,39.70
2022-11-04T23:38:35.691Z,56.70
2022-11-04T23:41:25.573Z,45.10
2022-11-04T23:43:53.601Z,38.50
2022-11-04T23:46:43.314Z,39.00
2022-11-04T23:49:31.108Z,35.50
2022-11-04T23:52:31.301Z,40.50
2022-11-04T23:55:18.113Z,37.80
2022-11-04T23:58:04.866Z,36.40
